Time;durP1;ratioP1;P1;durP2;ratioP2;P2;SDS_P1;SDS_P2;PMS_P1;PMS_P2;Temp;Humidity;BMP_temperature;BMP_pressure;BME280_temperature;BME280_humidity;BME280_pressure;Samples;Min_cycle;Max_cycle;Signal;HPM_P1;HPM_P2
2023/12/31 00:00:31;;;;;;;;;;;18.70;57.40;;;;;;7398134;19;1549;-73
2023/12/31 00:02:57;;;;;;;;;;;18.80;56.70;;;;;;7398284;19;1405;-74
2023/12/31 00:05:22;;;;;;;;;;;18.70;57.20;;;;;;7394885;19;3001;-74
2023/12/31 00:07:48;;;;;;;;;;;18.70;56.70;;;;;;7397108;19;1352;-74
2023/12/31 00:10:13;;;;;;;;;;;18.70;57.00;;;;;;7397338;19;1490;-74
2023/12/31 00:12:39;;;;;;;;;;;18.60;57.10;;;;;;7396403;19;2719;-74
2023/12/31 00:15:04;;;;;;;;;;;18.60;56.90;;;;;;7398332;19;1233;-74
2023/12/31 00:17:30;;;;;;;;;;;18.50;56.80;;;;;;7396523;19;6444;-74
2023/12/31 00:19:55;;;;;;;;;;;18.50;57.00;;;;;;7392259;19;4482;-74
2023/12/31 00:22:21;;;;;;;;;;;18.50;56.90;;;;;;7394241;19;4499;-74
2023/12/31 00:24:46;;;;;;;;;;;18.50;57.10;;;;;;7398927;19;1842;-74
2023/12/31 00:27:12;;;;;;;;;;;18.40;57.10;;;;;;7394553;19;3435;-73
2023/12/31 00:29:37;;;;;;;;;;;18.40;57.10;;;;;;7395661;19;4694;-74
2023/12/31 00:32:03;;;;;;;;;;;18.40;56.90;;;;;;7393243;19;5239;-73
2023/12/31 00:34:28;;;;;;;;;;;18.30;57.30;;;;;;7394450;19;2906;-73
2023/12/31 00:36:53;;;;;;;;;;;18.30;57.30;;;;;;7396518;19;2027;-74
2023/12/31 00:39:19;;;;;;;;;;;18.30;57.20;;;;;;7398108;19;1720;-74
2023/12/31 00:41:44;;;;;;;;;;;18.30;57.30;;;;;;7390887;19;4531;-74
2023/12/31 00:44:10;;;;;;;;;;;18.20;57.30;;;;;;7398913;19;3434;-74
2023/12/31 00:46:35;;;;;;;;;;;18.20;57.30;;;;;;7392946;19;2818;-74
2023/12/31 00:49:00;;;;;;;;;;;18.20;57.30;;;;;;7395921;19;2849;-74
2023/12/31 00:51:26;;;;;;;;;;;18.20;57.60;;;;;;7396505;19;1326;-74
2023/12/31 00:53:51;;;;;;;;;;;18.20;57.50;;;;;;7397566;19;2362;-74
2023/12/31 00:56:17;;;;;;;;;;;18.10;57.60;;;;;;7395411;19;2803;-74
2023/12/31 00:58:42;;;;;;;;;;;18.10;57.70;;;;;;7396151;19;1305;-74
2023/12/31 01:01:08;;;;;;;;;;;18.10;58.00;;;;;;7393477;19;1334;-74
2023/12/31 01:03:33;;;;;;;;;;;18.10;57.80;;;;;;7395834;19;3144;-74
2023/12/31 01:06:05;;;;;;;;;;;18.00;57.90;;;;;;7395472;19;2750;-74
2023/12/31 01:08:31;;;;;;;;;;;18.00;58.00;;;;;;7396713;19;1379;-74
2023/12/31 01:10:56;;;;;;;;;;;18.00;58.10;;;;;;7400497;19;2899;-74
2023/12/31 01:13:22;;;;;;;;;;;17.90;58.20;;;;;;7396787;19;2506;-74
2023/12/31 01:15:47;;;;;;;;;;;17.90;58.30;;;;;;7394580;19;4461;-74
2023/12/31 01:18:13;;;;;;;;;;;17.90;58.30;;;;;;7397552;19;3105;-74
2023/12/31 01:20:38;;;;;;;;;;;17.90;58.20;;;;;;7396104;19;1664;-74
2023/12/31 01:23:04;;;;;;;;;;;17.90;58.30;;;;;;7395555;19;3317;-74
2023/12/31 01:25:29;;;;;;;;;;;17.90;58.40;;;;;;7394633;19;2773;-74
2023/12/31 01:27:55;;;;;;;;;;;17.80;58.30;;;;;;7395514;19;1583;-74
2023/12/31 01:30:22;;;;;;;;;;;17.80;58.30;;;;;;7394983;19;4252;-74
2023/12/31 01:32:48;;;;;;;;;;;17.80;58.40;;;;;;7393609;19;4033;-74
2023/12/31 01:35:13;;;;;;;;;;;17.80;58.60;;;;;;7397028;19;1425;-74
2023/12/31 01:37:39;;;;;;;;;;;17.70;58.50;;;;;;7396352;19;3398;-74
2023/12/31 01:40:04;;;;;;;;;;;17.70;58.60;;;;;;7394217;19;2815;-73
2023/12/31 01:42:30;;;;;;;;;;;17.70;58.80;;;;;;7394527;19;4351;-74
2023/12/31 01:44:55;;;;;;;;;;;17.70;58.70;;;;;;7394371;19;3400;-74
2023/12/31 01:47:21;;;;;;;;;;;17.70;58.80;;;;;;7394286;19;3538;-73
2023/12/31 01:49:47;;;;;;;;;;;17.70;58.90;;;;;;7396652;19;3087;-73
2023/12/31 01:52:12;;;;;;;;;;;17.60;58.70;;;;;;7395906;19;1597;-73
2023/12/31 01:54:38;;;;;;;;;;;17.60;58.70;;;;;;7394823;19;2861;-73
2023/12/31 01:57:03;;;;;;;;;;;17.60;58.90;;;;;;7393169;19;3267;-74
2023/12/31 01:59:29;;;;;;;;;;;17.60;58.80;;;;;;7395391;19;2322;-74
2023/12/31 02:01:54;;;;;;;;;;;17.50;58.90;;;;;;7394533;19;3171;-74
2023/12/31 02:04:20;;;;;;;;;;;17.50;58.90;;;;;;7396301;19;1835;-74
2023/12/31 02:06:46;;;;;;;;;;;17.50;58.80;;;;;;7394338;19;2837;-74
2023/12/31 02:09:11;;;;;;;;;;;17.50;59.10;;;;;;7393657;19;2928;-74
2023/12/31 02:11:37;;;;;;;;;;;17.50;59.30;;;;;;7398893;19;1403;-73
2023/12/31 02:14:03;;;;;;;;;;;17.60;58.30;;;;;;7401566;19;2859;-73
2023/12/31 02:16:28;;;;;;;;;;;17.70;58.10;;;;;;7401370;19;3883;-74
2023/12/31 02:18:53;;;;;;;;;;;17.80;57.90;;;;;;7399944;19;2214;-73
2023/12/31 02:21:19;;;;;;;;;;;17.90;57.80;;;;;;7400215;19;2946;-73
2023/12/31 02:23:44;;;;;;;;;;;18.00;57.40;;;;;;7403903;19;3306;-74
2023/12/31 02:26:10;;;;;;;;;;;18.30;57.40;;;;;;7398098;19;3471;-74
2023/12/31 02:28:36;;;;;;;;;;;18.60;56.90;;;;;;7401471;19;3133;-73
2023/12/31 02:31:02;;;;;;;;;;;18.90;56.00;;;;;;7401968;19;2952;-74
2023/12/31 02:33:27;;;;;;;;;;;19.40;55.30;;;;;;7402838;19;1516;-74
2023/12/31 02:35:52;;;;;;;;;;;19.80;54.20;;;;;;7400460;19;2774;-73
2023/12/31 02:38:18;;;;;;;;;;;20.20;53.30;;;;;;7403279;19;1570;-74
2023/12/31 02:40:43;;;;;;;;;;;20.40;52.70;;;;;;7403581;19;1516;-74
2023/12/31 02:43:09;;;;;;;;;;;20.50;52.50;;;;;;7398056;19;4154;-74
2023/12/31 02:45:34;;;;;;;;;;;20.60;52.50;;;;;;7401122;19;3176;-74
2023/12/31 02:48:00;;;;;;;;;;;20.60;52.20;;;;;;7401243;19;3023;-74
2023/12/31 02:50:25;;;;;;;;;;;20.80;52.30;;;;;;7397937;19;3984;-74
2023/12/31 02:52:53;;;;;;;;;;;20.60;52.20;;;;;;7402573;19;1594;-74
2023/12/31 02:55:22;;;;;;;;;;;20.70;52.30;;;;;;7400937;19;1514;-74
2023/12/31 02:57:47;;;;;;;;;;;20.70;52.30;;;;;;7399969;19;3422;-74
2023/12/31 03:00:13;;;;;;;;;;;20.60;52.30;;;;;;7402581;19;1172;-74
2023/12/31 03:02:40;;;;;;;;;;;20.70;52.30;;;;;;7400925;19;1575;-74
2023/12/31 03:05:07;;;;;;;;;;;20.60;52.20;;;;;;7397233;19;2740;-74
2023/12/31 03:07:33;;;;;;;;;;;20.70;52.40;;;;;;7398953;19;4496;-74
2023/12/31 03:09:59;;;;;;;;;;;20.70;52.20;;;;;;7399637;19;1446;-74
2023/12/31 03:12:24;;;;;;;;;;;20.70;52.20;;;;;;7397330;19;2769;-74
2023/12/31 03:14:49;;;;;;;;;;;20.70;52.20;;;;;;7402189;19;3279;-74
2023/12/31 03:17:15;;;;;;;;;;;20.80;52.20;;;;;;7399416;19;1576;-74
2023/12/31 03:19:40;;;;;;;;;;;20.70;52.00;;;;;;7398781;19;2822;-74
2023/12/31 03:22:06;;;;;;;;;;;20.70;52.20;;;;;;7396451;19;4316;-74
2023/12/31 03:24:31;;;;;;;;;;;20.70;52.20;;;;;;7399054;19;1846;-74
2023/12/31 03:26:56;;;;;;;;;;;20.70;52.30;;;;;;7398755;19;3279;-74
2023/12/31 03:29:22;;;;;;;;;;;20.70;52.30;;;;;;7397871;19;2775;-74
2023/12/31 03:31:47;;;;;;;;;;;20.70;52.50;;;;;;7400235;19;3185;-74
2023/12/31 03:34:13;;;;;;;;;;;20.50;52.60;;;;;;7398928;19;3960;-74
2023/12/31 03:36:38;;;;;;;;;;;20.50;53.00;;;;;;7399417;19;1480;-74
2023/12/31 03:39:03;;;;;;;;;;;20.30;53.00;;;;;;7399938;19;1220;-74
2023/12/31 03:41:29;;;;;;;;;;;20.30;53.20;;;;;;7397132;19;2922;-74
2023/12/31 03:43:54;;;;;;;;;;;20.30;53.20;;;;;;7399038;19;4096;-73
2023/12/31 03:46:20;;;;;;;;;;;20.30;53.50;;;;;;7400912;19;1854;-74
2023/12/31 03:48:45;;;;;;;;;;;20.20;53.30;;;;;;7397341;19;2957;-74
2023/12/31 03:51:11;;;;;;;;;;;20.10;53.50;;;;;;7398020;19;1609;-74
2023/12/31 03:53:36;;;;;;;;;;;20.20;53.60;;;;;;7399052;19;1102;-74
2023/12/31 03:56:02;;;;;;;;;;;20.10;53.60;;;;;;7396515;19;2796;-74
2023/12/31 03:58:27;;;;;;;;;;;20.10;53.80;;;;;;7398613;19;1532;-74
2023/12/31 04:00:53;;;;;;;;;;;20.10;53.70;;;;;;7397540;19;1689;-74
2023/12/31 04:03:18;;;;;;;;;;;20.10;53.70;;;;;;7397558;19;3307;-73
2023/12/31 04:05:44;;;;;;;;;;;20.20;53.60;;;;;;7399628;19;1846;-74
2023/12/31 04:08:09;;;;;;;;;;;20.20;53.40;;;;;;7396324;19;3895;-74
2023/12/31 04:10:34;;;;;;;;;;;20.30;53.40;;;;;;7393098;19;4445;-73
2023/12/31 04:13:00;;;;;;;;;;;20.40;53.40;;;;;;7399712;19;1486;-74
2023/12/31 04:15:25;;;;;;;;;;;20.40;52.90;;;;;;7398056;19;1616;-74
2023/12/31 04:17:51;;;;;;;;;;;20.40;53.20;;;;;;7398457;19;5777;-74
2023/12/31 04:20:17;;;;;;;;;;;20.40;53.00;;;;;;7398519;19;1529;-74
2023/12/31 04:22:42;;;;;;;;;;;20.40;53.10;;;;;;7398148;19;1450;-74
2023/12/31 04:25:08;;;;;;;;;;;20.50;53.00;;;;;;7394578;19;4317;-74
2023/12/31 04:27:38;;;;;;;;;;;20.50;52.90;;;;;;7397603;19;1500;-74
2023/12/31 04:30:03;;;;;;;;;;;20.50;52.90;;;;;;7398250;19;1348;-74
2023/12/31 04:32:29;;;;;;;;;;;20.50;52.70;;;;;;7395359;19;2817;-74
2023/12/31 04:34:54;;;;;;;;;;;20.50;53.00;;;;;;7396554;19;1328;-74
2023/12/31 04:37:20;;;;;;;;;;;20.50;53.00;;;;;;7397365;19;1318;-74
2023/12/31 04:39:45;;;;;;;;;;;20.50;52.90;;;;;;7396309;19;2968;-74
2023/12/31 04:42:11;;;;;;;;;;;20.50;52.90;;;;;;7395339;19;4368;-75
2023/12/31 04:44:37;;;;;;;;;;;20.50;53.00;;;;;;7397790;19;3213;-74
2023/12/31 04:47:02;;;;;;;;;;;20.50;52.90;;;;;;7389338;19;5853;-74
2023/12/31 04:49:28;;;;;;;;;;;20.60;53.00;;;;;;7394824;19;4870;-74
2023/12/31 04:51:53;;;;;;;;;;;20.50;52.70;;;;;;7395912;19;3304;-74
2023/12/31 04:54:18;;;;;;;;;;;20.50;52.90;;;;;;7396409;19;2847;-74
2023/12/31 04:56:44;;;;;;;;;;;20.50;52.90;;;;;;7396429;19;1792;-74
2023/12/31 04:59:09;;;;;;;;;;;20.50;52.90;;;;;;7397264;19;1528;-74
2023/12/31 05:01:35;;;;;;;;;;;20.50;53.00;;;;;;7389098;19;5769;-74
2023/12/31 05:04:03;;;;;;;;;;;20.50;53.00;;;;;;7394957;19;4361;-75
2023/12/31 05:06:28;;;;;;;;;;;20.40;52.80;;;;;;7395200;19;3122;-74
2023/12/31 05:08:54;;;;;;;;;;;20.50;53.20;;;;;;7392931;19;3605;-74
2023/12/31 05:11:19;;;;;;;;;;;20.50;53.10;;;;;;7397341;19;1620;-74
2023/12/31 05:13:45;;;;;;;;;;;20.50;52.90;;;;;;7396945;19;1323;-74
2023/12/31 05:16:13;;;;;;;;;;;20.40;53.10;;;;;;7394775;19;2687;-73
2023/12/31 05:18:43;;;;;;;;;;;20.40;53.20;;;;;;7392754;19;4323;-74
2023/12/31 05:21:09;;;;;;;;;;;20.40;53.10;;;;;;7396410;19;3120;-74
2023/12/31 05:23:35;;;;;;;;;;;20.40;53.00;;;;;;7391665;19;4589;-73
2023/12/31 05:26:00;;;;;;;;;;;20.40;53.10;;;;;;7395012;19;3198;-73
2023/12/31 05:28:26;;;;;;;;;;;20.40;53.20;;;;;;7394225;19;1493;-74
2023/12/31 05:30:51;;;;;;;;;;;20.40;53.00;;;;;;7396029;19;2814;-74
2023/12/31 05:33:17;;;;;;;;;;;20.40;52.90;;;;;;7395153;19;1311;-74
2023/12/31 05:35:42;;;;;;;;;;;20.50;53.20;;;;;;7395078;19;2969;-74
2023/12/31 05:38:07;;;;;;;;;;;20.50;52.90;;;;;;7393984;19;3759;-74
2023/12/31 05:40:33;;;;;;;;;;;20.50;52.90;;;;;;7393738;19;1420;-74
2023/12/31 05:42:58;;;;;;;;;;;20.50;53.00;;;;;;7395830;19;4003;-74
2023/12/31 05:45:24;;;;;;;;;;;20.50;52.90;;;;;;7392648;19;3051;-74
2023/12/31 05:47:49;;;;;;;;;;;20.60;53.10;;;;;;7394498;19;1378;-74
2023/12/31 05:50:15;;;;;;;;;;;20.60;53.00;;;;;;7396178;19;3455;-74
2023/12/31 05:52:40;;;;;;;;;;;20.60;53.00;;;;;;7394116;19;2775;-74
2023/12/31 05:55:06;;;;;;;;;;;20.50;52.80;;;;;;7395378;19;3265;-74
2023/12/31 05:57:31;;;;;;;;;;;20.50;52.90;;;;;;7396161;19;3025;-74
2023/12/31 05:59:57;;;;;;;;;;;20.50;53.00;;;;;;7393336;19;4265;-74
2023/12/31 06:02:23;;;;;;;;;;;20.60;53.00;;;;;;7395071;19;1588;-74
2023/12/31 06:04:48;;;;;;;;;;;20.50;52.60;;;;;;7395731;19;1854;-74
2023/12/31 06:07:14;;;;;;;;;;;20.50;53.00;;;;;;7390399;19;4367;-74
2023/12/31 06:09:39;;;;;;;;;;;20.60;53.00;;;;;;7390897;19;4816;-74
2023/12/31 06:12:04;;;;;;;;;;;20.60;52.90;;;;;;7394703;19;3159;-74
2023/12/31 06:14:30;;;;;;;;;;;20.60;52.80;;;;;;7395259;19;4018;-74
2023/12/31 06:16:56;;;;;;;;;;;20.60;53.00;;;;;;7395834;19;1551;-74
2023/12/31 06:19:21;;;;;;;;;;;20.60;53.00;;;;;;7393563;19;1631;-74
2023/12/31 06:21:46;;;;;;;;;;;20.60;53.00;;;;;;7392794;19;2944;-74
2023/12/31 06:24:12;;;;;;;;;;;20.60;53.00;;;;;;7396316;19;1188;-74
2023/12/31 06:26:37;;;;;;;;;;;20.60;53.00;;;;;;7390613;19;1838;-74
2023/12/31 06:29:03;;;;;;;;;;;20.60;53.00;;;;;;7393274;19;2862;-74
2023/12/31 06:31:28;;;;;;;;;;;20.60;52.90;;;;;;7393149;19;3348;-74
2023/12/31 06:33:54;;;;;;;;;;;20.60;53.00;;;;;;7393757;19;1335;-74
2023/12/31 06:36:19;;;;;;;;;;;20.60;52.90;;;;;;7392685;19;3187;-74
2023/12/31 06:38:44;;;;;;;;;;;20.50;52.80;;;;;;7393096;19;1535;-74
2023/12/31 06:41:10;;;;;;;;;;;20.40;52.70;;;;;;7392487;19;1434;-74
2023/12/31 06:43:36;;;;;;;;;;;20.40;53.10;;;;;;7391057;19;3986;-73
2023/12/31 06:46:02;;;;;;;;;;;20.50;52.50;;;;;;7391858;19;4464;-74
2023/12/31 06:48:27;;;;;;;;;;;20.30;52.30;;;;;;7393228;19;4313;-74
2023/12/31 06:50:53;;;;;;;;;;;20.20;52.50;;;;;;7394886;19;3079;-74
2023/12/31 06:53:19;;;;;;;;;;;20.10;52.90;;;;;;7393611;19;3314;-74
2023/12/31 06:55:44;;;;;;;;;;;20.00;53.20;;;;;;7393052;19;2948;-74
2023/12/31 06:58:10;;;;;;;;;;;19.90;53.70;;;;;;7389826;19;4322;-74
2023/12/31 07:00:35;;;;;;;;;;;19.80;53.70;;;;;;7399583;19;3092;-73
2023/12/31 07:03:01;;;;;;;;;;;19.60;53.50;;;;;;7392005;19;4433;-74
2023/12/31 07:05:26;;;;;;;;;;;19.60;53.90;;;;;;7399219;19;3272;-74
2023/12/31 07:07:52;;;;;;;;;;;19.50;53.90;;;;;;7398303;19;4591;-74
2023/12/31 07:10:17;;;;;;;;;;;19.40;54.00;;;;;;7394691;19;4609;-73
2023/12/31 07:12:43;;;;;;;;;;;19.40;54.30;;;;;;7398407;19;4297;-73
2023/12/31 07:15:09;;;;;;;;;;;19.40;54.10;;;;;;7398969;19;4322;-73
2023/12/31 07:17:35;;;;;;;;;;;19.30;54.20;;;;;;7397735;19;4126;-73
2023/12/31 07:20:03;;;;;;;;;;;19.30;54.20;;;;;;7399160;19;4424;-74
2023/12/31 07:22:28;;;;;;;;;;;19.20;54.20;;;;;;7395077;19;2706;-74
2023/12/31 07:24:53;;;;;;;;;;;19.20;54.30;;;;;;7394668;19;4419;-73
2023/12/31 07:27:19;;;;;;;;;;;19.20;54.30;;;;;;7391562;19;4559;-74
2023/12/31 07:29:44;;;;;;;;;;;19.10;54.20;;;;;;7397385;19;4472;-74
2023/12/31 07:32:10;;;;;;;;;;;19.10;54.20;;;;;;7393691;19;4289;-74
2023/12/31 07:34:35;;;;;;;;;;;19.10;54.30;;;;;;7400448;19;3389;-74
2023/12/31 07:37:01;;;;;;;;;;;19.10;54.30;;;;;;7393800;19;6136;-74
2023/12/31 07:39:26;;;;;;;;;;;19.20;54.30;;;;;;7399195;19;3397;-74
2023/12/31 07:41:52;;;;;;;;;;;19.10;54.20;;;;;;7392992;19;4408;-73
2023/12/31 07:44:19;;;;;;;;;;;19.10;54.20;;;;;;7398797;19;4396;-74
2023/12/31 07:46:44;;;;;;;;;;;19.10;54.20;;;;;;7393861;19;2723;-74
2023/12/31 07:49:10;;;;;;;;;;;19.20;54.20;;;;;;7400272;19;1360;-73
2023/12/31 07:51:35;;;;;;;;;;;19.20;54.20;;;;;;7394557;19;4325;-73
2023/12/31 07:54:01;;;;;;;;;;;19.20;54.20;;;;;;7395892;19;4324;-73
2023/12/31 07:56:26;;;;;;;;;;;19.20;54.10;;;;;;7391027;19;4693;-74
2023/12/31 07:58:52;;;;;;;;;;;19.10;54.20;;;;;;7399625;19;3089;-73
2023/12/31 08:01:17;;;;;;;;;;;19.10;54.10;;;;;;7395058;19;2927;-74
2023/12/31 08:03:42;;;;;;;;;;;19.10;54.20;;;;;;7396788;19;3036;-74
2023/12/31 08:06:09;;;;;;;;;;;19.10;54.20;;;;;;7399404;19;1854;-74
2023/12/31 08:08:35;;;;;;;;;;;19.00;54.40;;;;;;7394269;19;2744;-74
2023/12/31 08:11:00;;;;;;;;;;;19.00;54.10;;;;;;7398723;19;3332;-73
2023/12/31 08:13:26;;;;;;;;;;;18.90;54.10;;;;;;7401074;19;1498;-74
2023/12/31 08:15:51;;;;;;;;;;;19.00;54.10;;;;;;7397273;19;2709;-73
2023/12/31 08:18:17;;;;;;;;;;;18.90;54.10;;;;;;7398469;19;1463;-73
2023/12/31 08:20:42;;;;;;;;;;;18.90;54.10;;;;;;7399108;19;1488;-73
2023/12/31 08:23:08;;;;;;;;;;;18.90;54.10;;;;;;7396220;19;3082;-73
2023/12/31 08:25:33;;;;;;;;;;;18.90;54.10;;;;;;7397480;19;3497;-74
2023/12/31 08:27:59;;;;;;;;;;;18.80;54.00;;;;;;7397020;19;1489;-73
2023/12/31 08:30:25;;;;;;;;;;;18.80;54.10;;;;;;7397609;19;2907;-74
2023/12/31 08:32:50;;;;;;;;;;;18.80;54.30;;;;;;7395668;19;2975;-73
2023/12/31 08:35:16;;;;;;;;;;;18.70;54.10;;;;;;7395280;19;3087;-73
2023/12/31 08:37:41;;;;;;;;;;;18.80;54.20;;;;;;7393985;19;2790;-73
2023/12/31 08:40:07;;;;;;;;;;;18.70;54.10;;;;;;7397622;19;2877;-74
2023/12/31 08:42:35;;;;;;;;;;;18.70;54.10;;;;;;7395663;19;4358;-74
2023/12/31 08:45:03;;;;;;;;;;;18.70;54.20;;;;;;7391016;19;6286;-74
2023/12/31 08:47:28;;;;;;;;;;;18.70;54.20;;;;;;7396916;19;1512;-74
2023/12/31 08:49:54;;;;;;;;;;;18.70;54.10;;;;;;7398280;19;1333;-74
2023/12/31 08:52:20;;;;;;;;;;;18.70;54.10;;;;;;7391787;19;4493;-74
2023/12/31 08:54:47;;;;;;;;;;;18.70;54.00;;;;;;7396632;19;4527;-74
2023/12/31 08:57:12;;;;;;;;;;;18.70;53.90;;;;;;7395296;19;4332;-74
2023/12/31 08:59:38;;;;;;;;;;;18.70;54.00;;;;;;7393431;19;4453;-73
2023/12/31 09:02:03;;;;;;;;;;;18.70;53.90;;;;;;7392302;19;4400;-74
2023/12/31 09:04:34;;;;;;;;;;;18.70;53.90;;;;;;7393145;19;3982;-74
2023/12/31 09:07:00;;;;;;;;;;;18.60;53.80;;;;;;7392925;19;4511;-73
2023/12/31 09:09:25;;;;;;;;;;;18.70;53.90;;;;;;7393654;19;5969;-74
2023/12/31 09:11:50;;;;;;;;;;;18.70;53.90;;;;;;7395719;19;3348;-74
2023/12/31 09:14:16;;;;;;;;;;;18.70;53.80;;;;;;7395361;19;3782;-74
2023/12/31 09:16:41;;;;;;;;;;;18.70;53.70;;;;;;7395881;19;1444;-73
2023/12/31 09:19:07;;;;;;;;;;;18.70;53.80;;;;;;7393750;19;4435;-74
2023/12/31 09:21:33;;;;;;;;;;;18.70;53.80;;;;;;7388291;19;6228;-74
2023/12/31 09:23:58;;;;;;;;;;;18.70;53.60;;;;;;7393375;19;4669;-74
2023/12/31 09:26:24;;;;;;;;;;;18.70;53.60;;;;;;7388736;19;4613;-75
2023/12/31 09:28:50;;;;;;;;;;;18.70;53.40;;;;;;7392356;19;4345;-73
2023/12/31 09:31:15;;;;;;;;;;;18.70;53.40;;;;;;7390788;19;5223;-74
2023/12/31 09:33:41;;;;;;;;;;;18.80;53.40;;;;;;7389306;19;4486;-73
2023/12/31 09:36:07;;;;;;;;;;;18.80;53.40;;;;;;7389408;19;4461;-74
2023/12/31 09:38:33;;;;;;;;;;;18.80;53.30;;;;;;7394237;19;4433;-74
2023/12/31 09:40:58;;;;;;;;;;;18.80;53.40;;;;;;7387840;19;4534;-73
2023/12/31 09:43:23;;;;;;;;;;;18.80;53.20;;;;;;7390124;19;5869;-73
2023/12/31 09:45:49;;;;;;;;;;;18.80;53.20;;;;;;7394179;19;4374;-74
2023/12/31 09:48:15;;;;;;;;;;;18.80;53.10;;;;;;7395605;19;3144;-73
2023/12/31 09:50:40;;;;;;;;;;;18.80;53.30;;;;;;7393432;19;3111;-74
2023/12/31 09:53:06;;;;;;;;;;;18.70;53.90;;;;;;7392838;19;2741;-73
2023/12/31 09:55:31;;;;;;;;;;;18.70;53.30;;;;;;7394525;19;3135;-74
2023/12/31 09:57:57;;;;;;;;;;;18.70;53.50;;;;;;7391366;19;2946;-73
2023/12/31 10:00:22;;;;;;;;;;;18.70;53.30;;;;;;7396692;19;3147;-74
2023/12/31 10:02:48;;;;;;;;;;;18.70;53.30;;;;;;7395361;19;1398;-73
2023/12/31 10:05:14;;;;;;;;;;;18.70;53.40;;;;;;7392464;19;2807;-73
2023/12/31 10:07:40;;;;;;;;;;;18.60;53.40;;;;;;7394510;19;1605;-74
2023/12/31 10:10:06;;;;;;;;;;;18.60;53.30;;;;;;7385539;19;4204;-74
2023/12/31 10:12:31;;;;;;;;;;;18.60;53.50;;;;;;7384916;19;4236;-74
2023/12/31 10:14:57;;;;;;;;;;;18.50;53.70;;;;;;7381285;19;5008;-74
2023/12/31 10:17:24;;;;;;;;;;;18.50;53.70;;;;;;7392927;19;4425;-73
2023/12/31 10:19:50;;;;;;;;;;;18.40;53.60;;;;;;7393250;19;4390;-74
2023/12/31 10:22:15;;;;;;;;;;;18.40;53.70;;;;;;7395716;19;3251;-74
2023/12/31 10:24:43;;;;;;;;;;;18.40;53.60;;;;;;7393454;19;1842;-74
2023/12/31 10:27:09;;;;;;;;;;;18.30;53.60;;;;;;7392057;19;3024;-74
2023/12/31 10:29:35;;;;;;;;;;;18.30;53.50;;;;;;7394610;19;1720;-74
2023/12/31 10:32:01;;;;;;;;;;;18.30;53.50;;;;;;7393247;19;3606;-73
2023/12/31 10:34:26;;;;;;;;;;;18.40;53.40;;;;;;7398791;19;3933;-74
2023/12/31 10:37:00;;;;;;;;;;;18.40;53.80;;;;;;7400790;19;1387;-74
2023/12/31 10:39:29;;;;;;;;;;;18.50;53.20;;;;;;7398925;19;3021;-74
2023/12/31 10:42:03;;;;;;;;;;;18.50;53.10;;;;;;7398951;19;2791;-73
2023/12/31 10:44:31;;;;;;;;;;;18.50;53.10;;;;;;7400479;19;4490;-74
2023/12/31 10:46:57;;;;;;;;;;;18.50;53.10;;;;;;7396418;19;2579;-74
2023/12/31 10:49:23;;;;;;;;;;;18.50;52.90;;;;;;7400777;19;2867;-74
2023/12/31 10:51:49;;;;;;;;;;;18.70;53.20;;;;;;7399220;19;4382;-74
2023/12/31 10:54:15;;;;;;;;;;;18.90;52.90;;;;;;7400486;19;3059;-74
2023/12/31 10:56:41;;;;;;;;;;;19.20;52.60;;;;;;7397022;19;5938;-74
2023/12/31 10:59:06;;;;;;;;;;;19.40;52.10;;;;;;7399444;19;3104;-74
2023/12/31 11:01:32;;;;;;;;;;;19.50;51.90;;;;;;7399354;19;4173;-74
2023/12/31 11:03:57;;;;;;;;;;;19.50;51.70;;;;;;7401605;19;3152;-75
2023/12/31 11:06:23;;;;;;;;;;;19.50;51.70;;;;;;7395760;19;2242;-74
2023/12/31 11:08:48;;;;;;;;;;;19.40;51.50;;;;;;7395514;19;2909;-74
2023/12/31 11:11:14;;;;;;;;;;;19.60;51.70;;;;;;7401209;19;1657;-74
2023/12/31 11:13:41;;;;;;;;;;;19.70;51.30;;;;;;7401740;19;1486;-74
2023/12/31 11:16:06;;;;;;;;;;;19.70;51.30;;;;;;7401982;19;3075;-74
2023/12/31 11:18:42;;;;;;;;;;;19.80;51.20;;;;;;7401341;19;3144;-74
2023/12/31 11:21:12;;;;;;;;;;;19.90;51.10;;;;;;7399736;19;1214;-74
2023/12/31 11:23:46;;;;;;;;;;;20.00;50.90;;;;;;7398833;19;4207;-74
2023/12/31 11:26:11;;;;;;;;;;;20.00;50.60;;;;;;7398648;19;1853;-74
2023/12/31 11:28:37;;;;;;;;;;;20.10;50.60;;;;;;7399211;19;1982;-75
2023/12/31 11:31:08;;;;;;;;;;;20.10;50.60;;;;;;7398395;19;2714;-74
2023/12/31 11:33:34;;;;;;;;;;;20.10;50.60;;;;;;7400511;19;1555;-74
2023/12/31 11:36:05;;;;;;;;;;;20.00;50.50;;;;;;7397935;19;3103;-74
2023/12/31 11:38:50;;;;;;;;;;;19.90;50.80;;;;;;7397751;19;3867;-74
2023/12/31 11:41:17;;;;;;;;;;;19.80;50.80;;;;;;7398254;19;1776;-74
2023/12/31 11:43:44;;;;;;;;;;;19.80;51.10;;;;;;7395656;19;4022;-74
2023/12/31 11:46:10;;;;;;;;;;;19.90;51.00;;;;;;7394857;19;3390;-74
2023/12/31 11:48:35;;;;;;;;;;;19.90;51.10;;;;;;7397822;19;3156;-75
2023/12/31 11:51:01;;;;;;;;;;;20.10;51.20;;;;;;7398352;19;3859;-74
2023/12/31 11:53:27;;;;;;;;;;;20.10;50.90;;;;;;7397937;19;4217;-74
2023/12/31 11:55:53;;;;;;;;;;;20.20;50.90;;;;;;7399651;19;1497;-74
2023/12/31 11:58:21;;;;;;;;;;;20.20;50.70;;;;;;7401658;19;1491;-75
2023/12/31 12:00:46;;;;;;;;;;;20.30;50.70;;;;;;7397299;19;3027;-74
2023/12/31 12:03:12;;;;;;;;;;;20.30;50.50;;;;;;7398821;19;2716;-75
2023/12/31 12:05:38;;;;;;;;;;;20.40;50.50;;;;;;7398499;19;1853;-74
2023/12/31 12:08:05;;;;;;;;;;;20.40;50.40;;;;;;7394769;19;3135;-74
2023/12/31 12:10:31;;;;;;;;;;;20.40;50.40;;;;;;7393848;19;3033;-74
2023/12/31 12:12:59;;;;;;;;;;;20.50;50.50;;;;;;7399613;19;3002;-73
2023/12/31 12:15:24;;;;;;;;;;;20.50;50.30;;;;;;7397501;19;3031;-74
2023/12/31 12:17:49;;;;;;;;;;;20.50;50.70;;;;;;7399186;19;1295;-73
2023/12/31 12:20:15;;;;;;;;;;;20.50;50.90;;;;;;7397491;19;2695;-74
2023/12/31 12:22:40;;;;;;;;;;;20.40;51.00;;;;;;7396922;19;2907;-74
2023/12/31 12:25:07;;;;;;;;;;;20.30;51.40;;;;;;7397390;19;1866;-74
2023/12/31 12:27:35;;;;;;;;;;;20.20;51.40;;;;;;7395252;19;3944;-74
2023/12/31 12:30:01;;;;;;;;;;;20.30;51.60;;;;;;7394218;19;3152;-74
2023/12/31 12:32:26;;;;;;;;;;;20.30;51.30;;;;;;7395975;19;1571;-74
2023/12/31 12:34:51;;;;;;;;;;;20.40;51.40;;;;;;7390231;19;3026;-74
2023/12/31 12:37:17;;;;;;;;;;;20.30;51.40;;;;;;7397191;19;2835;-74
2023/12/31 12:39:42;;;;;;;;;;;20.40;51.30;;;;;;7398460;19;1497;-73
2023/12/31 12:42:11;;;;;;;;;;;20.40;51.10;;;;;;7392506;19;4209;-74
2023/12/31 12:44:36;;;;;;;;;;;20.40;51.10;;;;;;7395324;19;4274;-74
2023/12/31 12:47:02;;;;;;;;;;;20.40;51.80;;;;;;7396935;19;1838;-75
2023/12/31 12:49:28;;;;;;;;;;;20.30;51.10;;;;;;7397870;19;2561;-74
2023/12/31 12:51:53;;;;;;;;;;;20.30;51.30;;;;;;7393895;19;4379;-74
2023/12/31 12:54:19;;;;;;;;;;;20.20;51.60;;;;;;7399148;19;1566;-74
2023/12/31 12:56:44;;;;;;;;;;;20.10;51.70;;;;;;7385265;19;4318;-74
2023/12/31 12:59:10;;;;;;;;;;;20.00;51.70;;;;;;7396701;19;3249;-74
2023/12/31 13:01:36;;;;;;;;;;;20.10;52.20;;;;;;7399013;19;2474;-74
2023/12/31 13:04:02;;;;;;;;;;;20.20;52.50;;;;;;7399232;19;2786;-74
2023/12/31 13:06:27;;;;;;;;;;;20.30;52.40;;;;;;7396630;19;1853;-72
2023/12/31 13:08:53;;;;;;;;;;;20.40;52.20;;;;;;7397274;19;2880;-73
2023/12/31 13:11:18;;;;;;;;;;;20.50;52.10;;;;;;7397290;19;1495;-73
2023/12/31 13:13:45;;;;;;;;;;;20.50;51.80;;;;;;7398880;19;1723;-73
2023/12/31 13:16:10;;;;;;;;;;;20.50;51.90;;;;;;7396555;19;1498;-73
2023/12/31 13:18:36;;;;;;;;;;;20.50;51.90;;;;;;7395366;19;1900;-73
2023/12/31 13:21:02;;;;;;;;;;;20.50;51.90;;;;;;7394785;19;3944;-73
2023/12/31 13:23:27;;;;;;;;;;;20.60;51.90;;;;;;7398522;19;3481;-73
2023/12/31 13:25:53;;;;;;;;;;;20.50;51.70;;;;;;7396440;19;1845;-73
2023/12/31 13:28:21;;;;;;;;;;;20.60;51.90;;;;;;7395830;19;2654;-72
2023/12/31 13:30:46;;;;;;;;;;;20.60;51.90;;;;;;7397482;19;1433;-73
2023/12/31 13:33:13;;;;;;;;;;;20.90;51.50;;;;;;7394678;19;4062;-73
2023/12/31 13:35:39;;;;;;;;;;;21.20;50.70;;;;;;7396667;19;2997;-73
2023/12/31 13:38:04;;;;;;;;;;;21.70;49.60;;;;;;7398891;19;1532;-72
2023/12/31 13:40:29;;;;;;;;;;;22.10;48.80;;;;;;7392930;19;3816;-73
2023/12/31 13:42:56;;;;;;;;;;;22.20;48.40;;;;;;7395072;19;4228;-73
2023/12/31 13:45:22;;;;;;;;;;;22.20;48.20;;;;;;7396677;19;3687;-72
2023/12/31 13:47:47;;;;;;;;;;;22.20;48.40;;;;;;7391995;19;3611;-73
2023/12/31 13:50:13;;;;;;;;;;;22.00;48.60;;;;;;7392592;19;2477;-73
2023/12/31 13:52:38;;;;;;;;;;;21.90;48.90;;;;;;7385965;19;3534;-74
2023/12/31 13:55:04;;;;;;;;;;;21.90;49.10;;;;;;7395991;19;2717;-73
2023/12/31 13:57:29;;;;;;;;;;;22.00;48.90;;;;;;7394554;19;2456;-73
2023/12/31 13:59:55;;;;;;;;;;;22.20;48.60;;;;;;7391318;19;5995;-73
2023/12/31 14:02:20;;;;;;;;;;;22.40;48.30;;;;;;7392928;19;2738;-72
2023/12/31 14:04:46;;;;;;;;;;;22.50;48.10;;;;;;7393577;19;2591;-73
2023/12/31 14:07:11;;;;;;;;;;;22.60;47.90;;;;;;7393555;19;2526;-73
2023/12/31 14:09:38;;;;;;;;;;;22.70;47.90;;;;;;7398179;19;3509;-73
2023/12/31 14:12:04;;;;;;;;;;;22.70;47.70;;;;;;7401335;19;2402;-75
2023/12/31 14:14:29;;;;;;;;;;;22.80;47.70;;;;;;7399032;19;4102;-75
2023/12/31 14:16:55;;;;;;;;;;;22.70;47.70;;;;;;7399874;19;4858;-73
2023/12/31 14:19:20;;;;;;;;;;;22.90;47.70;;;;;;7401291;19;3113;-73
2023/12/31 14:21:47;;;;;;;;;;;22.90;47.70;;;;;;7401923;19;1656;-73